createdAt,value
2018-01-29T00:02:02.981Z,18.10
2018-01-29T00:04:30.505Z,19.92
2018-01-29T00:06:57.974Z,19.37
2018-01-29T00:09:25.642Z,19.75
2018-01-29T00:11:53.108Z,20.00
2018-01-29T00:14:20.688Z,17.98
2018-01-29T00:16:48.264Z,17.13
2018-01-29T00:19:15.837Z,18.30
2018-01-29T00:21:43.300Z,18.00
2018-01-29T00:24:10.776Z,19.30
2018-01-29T00:26:38.255Z,16.93
2018-01-29T00:29:05.724Z,16.67
2018-01-29T00:31:33.218Z,18.27
2018-01-29T00:34:00.748Z,17.42
2018-01-29T00:36:28.220Z,17.73
2018-01-29T00:38:55.788Z,16.30
2018-01-29T00:41:23.345Z,16.12
2018-01-29T00:43:50.836Z,16.95
2018-01-29T00:46:18.400Z,16.00
2018-01-29T00:48:45.868Z,15.60
2018-01-29T00:51:13.436Z,15.70
2018-01-29T00:53:40.914Z,15.45
2018-01-29T00:56:08.390Z,15.07
2018-01-29T00:58:35.858Z,15.35
2018-01-29T01:01:03.351Z,16.02
2018-01-29T01:03:31.592Z,16.55
2018-01-29T01:05:59.068Z,17.15
2018-01-29T01:08:26.658Z,15.95
2018-01-29T01:10:54.228Z,15.68
2018-01-29T01:13:21.720Z,16.40
2018-01-29T01:15:49.982Z,15.95
2018-01-29T01:18:17.551Z,15.43
2018-01-29T01:20:45.792Z,14.87
2018-01-29T01:23:13.271Z,14.57
2018-01-29T01:25:40.780Z,13.70
2018-01-29T01:28:08.354Z,13.88
2018-01-29T01:30:35.823Z,13.50
2018-01-29T01:33:04.081Z,13.13
2018-01-29T01:35:31.588Z,13.02
2018-01-29T01:37:59.159Z,12.32
2018-01-29T01:40:26.628Z,13.10
2018-01-29T01:42:54.092Z,14.98
2018-01-29T01:45:21.564Z,14.37
2018-01-29T01:47:49.117Z,13.98
2018-01-29T01:50:16.604Z,13.95
2018-01-29T01:52:44.168Z,13.38
2018-01-29T01:55:11.742Z,13.25
2018-01-29T01:57:39.220Z,13.40
2018-01-29T02:00:06.680Z,12.93
2018-01-29T02:02:34.958Z,13.00
2018-01-29T02:05:02.550Z,12.20
2018-01-29T02:07:30.014Z,11.20
2018-01-29T02:09:57.585Z,10.70
2018-01-29T02:12:25.055Z,10.30
2018-01-29T02:14:52.524Z,11.90
2018-01-29T02:17:21.509Z,10.77
2018-01-29T02:19:48.980Z,10.95
2018-01-29T02:22:16.464Z,11.02
2018-01-29T02:24:44.043Z,11.05
2018-01-29T02:27:11.508Z,10.27
2018-01-29T02:29:38.983Z,9.18
2018-01-29T02:32:06.558Z,9.52
2018-01-29T02:34:34.012Z,9.85
2018-01-29T02:37:01.481Z,9.40
2018-01-29T02:39:29.064Z,9.75
2018-01-29T02:41:56.533Z,9.18
2018-01-29T02:44:24.000Z,9.68
2018-01-29T02:46:51.500Z,9.30
2018-01-29T02:49:19.729Z,9.23
2018-01-29T02:51:47.195Z,9.65
2018-01-29T02:54:14.668Z,9.03
2018-01-29T02:56:42.130Z,8.93
2018-01-29T02:59:09.595Z,8.70
2018-01-29T03:01:37.109Z,8.57
2018-01-29T03:04:04.583Z,8.50
2018-01-29T03:06:32.041Z,8.73
2018-01-29T03:08:59.612Z,8.48
2018-01-29T03:11:27.084Z,9.40
2018-01-29T03:13:54.603Z,8.60
2018-01-29T03:16:22.867Z,8.85
2018-01-29T03:18:51.236Z,9.32
2018-01-29T03:21:18.815Z,8.32
2018-01-29T03:23:47.811Z,8.70
2018-01-29T03:26:15.288Z,8.85
2018-01-29T03:28:42.852Z,9.85
2018-01-29T03:31:10.336Z,8.20
2018-01-29T03:33:37.947Z,8.20
2018-01-29T03:36:05.468Z,8.90
2018-01-29T03:38:32.956Z,8.52
2018-01-29T03:41:01.196Z,8.13
2018-01-29T03:43:28.672Z,8.85
2018-01-29T03:45:56.171Z,8.40
2018-01-29T03:48:23.644Z,8.80
2018-01-29T03:50:51.116Z,8.67
2018-01-29T03:53:18.669Z,8.50
2018-01-29T03:55:46.248Z,8.60
2018-01-29T03:58:13.939Z,8.30
2018-01-29T04:00:41.539Z,8.43
2018-01-29T04:03:09.776Z,8.35
2018-01-29T04:05:37.451Z,8.80
2018-01-29T04:08:04.924Z,9.10
2018-01-29T04:10:32.392Z,8.37
2018-01-29T04:13:00.624Z,8.43
2018-01-29T04:15:28.152Z,8.70
2018-01-29T04:17:55.716Z,8.90
2018-01-29T04:20:23.293Z,8.70
2018-01-29T04:22:50.763Z,9.27
2018-01-29T04:25:18.255Z,9.07
2018-01-29T04:27:45.804Z,8.63
2018-01-29T04:30:13.375Z,8.77
2018-01-29T04:32:40.843Z,9.32
2018-01-29T04:35:08.323Z,8.93
2018-01-29T04:37:35.885Z,8.50
2018-01-29T04:40:03.352Z,8.05
2018-01-29T04:42:30.828Z,8.90
2018-01-29T04:44:58.292Z,8.77
2018-01-29T04:47:25.768Z,8.68
2018-01-29T04:49:53.352Z,8.68
2018-01-29T04:52:20.903Z,8.75
2018-01-29T04:54:48.480Z,7.78
2018-01-29T04:57:15.965Z,9.18
2018-01-29T04:59:43.527Z,8.50
2018-01-29T05:02:11.088Z,9.13
2018-01-29T05:04:38.559Z,8.60
2018-01-29T05:07:06.036Z,8.05
2018-01-29T05:09:33.520Z,8.93
2018-01-29T05:12:00.995Z,9.00
2018-01-29T05:14:29.233Z,8.05
2018-01-29T05:16:56.701Z,7.63
2018-01-29T05:19:24.191Z,8.13
2018-01-29T05:21:52.429Z,7.30
2018-01-29T05:24:19.888Z,7.50
2018-01-29T05:26:48.135Z,8.38
2018-01-29T05:29:15.623Z,8.23
2018-01-29T05:31:43.080Z,7.93
2018-01-29T05:34:10.555Z,8.65
2018-01-29T05:39:38.540Z,8.65
2018-01-29T05:42:06.024Z,9.10
2018-01-29T05:44:33.476Z,8.40
2018-01-29T05:47:00.976Z,9.05
2018-01-29T05:49:28.440Z,9.30
2018-01-29T05:51:55.892Z,8.10
2018-01-29T05:54:23.364Z,8.02
2018-01-29T05:56:50.840Z,7.60
2018-01-29T05:59:18.320Z,7.57
2018-01-29T06:01:45.808Z,7.30
2018-01-29T06:04:13.284Z,7.53
2018-01-29T06:06:40.832Z,6.87
2018-01-29T06:09:08.336Z,6.43
2018-01-29T06:11:36.592Z,6.75
2018-01-29T06:14:04.112Z,7.00
2018-01-29T06:16:32.332Z,6.77
2018-01-29T06:18:59.817Z,7.80
2018-01-29T06:21:27.284Z,6.65
2018-01-29T06:23:54.743Z,6.93
2018-01-29T06:26:22.199Z,7.37
2018-01-29T06:28:49.698Z,7.45
2018-01-29T06:31:17.163Z,7.10
2018-01-29T06:33:44.639Z,7.97
2018-01-29T06:36:12.117Z,6.90
2018-01-29T06:38:39.567Z,7.18
2018-01-29T06:41:07.076Z,6.60
2018-01-29T06:43:35.332Z,7.43
2018-01-29T06:46:02.793Z,6.80
2018-01-29T06:48:30.272Z,7.00
2018-01-29T06:50:57.780Z,6.70
2018-01-29T06:53:25.219Z,7.32
2018-01-29T06:55:52.695Z,7.60
2018-01-29T06:58:20.164Z,7.47
2018-01-29T07:00:47.728Z,7.97
2018-01-29T07:03:15.220Z,7.70
2018-01-29T07:05:42.692Z,6.80
2018-01-29T07:08:10.952Z,7.87
2018-01-29T07:10:38.473Z,8.23
2018-01-29T07:13:06.693Z,8.77
2018-01-29T07:15:34.156Z,7.78
2018-01-29T07:18:01.620Z,8.13
2018-01-29T07:20:29.116Z,8.13
2018-01-29T07:22:57.340Z,8.70
2018-01-29T07:25:25.571Z,8.57
2018-01-29T07:27:53.061Z,7.25
2018-01-29T07:30:20.528Z,7.07
2018-01-29T07:32:48.005Z,7.10
2018-01-29T07:35:15.492Z,7.50
2018-01-29T07:37:42.952Z,8.27
2018-01-29T07:40:10.428Z,8.10
2018-01-29T07:42:37.892Z,9.02
2018-01-29T07:45:05.348Z,8.70
2018-01-29T07:47:32.809Z,9.25
2018-01-29T07:50:00.272Z,9.13
2018-01-29T07:52:27.739Z,9.27
2018-01-29T07:54:55.205Z,8.80
2018-01-29T07:57:22.752Z,8.80
2018-01-29T07:59:50.957Z,9.50
2018-01-29T08:02:18.452Z,9.40
2018-01-29T08:04:45.908Z,9.57
2018-01-29T08:07:13.369Z,9.10
2018-01-29T08:09:40.839Z,9.73
2018-01-29T08:12:08.300Z,8.52
2018-01-29T08:14:35.760Z,7.87
2018-01-29T08:17:03.224Z,8.90
2018-01-29T08:19:30.695Z,8.30
2018-01-29T08:21:58.210Z,8.30
2018-01-29T08:24:25.675Z,7.93
2018-01-29T08:26:53.179Z,8.15
2018-01-29T08:29:21.448Z,8.20
2018-01-29T08:31:48.916Z,8.20
2018-01-29T08:34:16.379Z,8.60
2018-01-29T08:36:43.943Z,8.20
2018-01-29T08:39:11.519Z,7.95
2018-01-29T08:41:38.993Z,8.40
2018-01-29T08:44:06.449Z,8.27
2018-01-29T08:46:33.960Z,8.80
2018-01-29T08:49:02.220Z,8.60
2018-01-29T08:51:29.784Z,8.57
2018-01-29T08:53:57.356Z,8.70
2018-01-29T08:56:24.841Z,8.85
2018-01-29T08:58:52.307Z,8.70
2018-01-29T09:01:19.804Z,8.63
2018-01-29T09:03:48.056Z,9.00
2018-01-29T09:06:15.636Z,8.20
2018-01-29T09:08:43.124Z,8.90
2018-01-29T09:11:11.388Z,8.90
2018-01-29T09:13:38.848Z,9.20
2018-01-29T09:16:06.328Z,9.50
2018-01-29T09:18:33.805Z,9.60
2018-01-29T09:21:01.272Z,8.35
2018-01-29T09:23:28.736Z,8.87
2018-01-29T09:25:56.202Z,8.13
2018-01-29T09:28:23.667Z,8.27
2018-01-29T09:30:51.149Z,6.95
2018-01-29T09:33:18.615Z,6.32
2018-01-29T09:35:46.079Z,7.37
2018-01-29T09:38:14.313Z,8.25
2018-01-29T09:40:42.539Z,7.70
2018-01-29T09:43:10.016Z,6.93
2018-01-29T09:45:37.473Z,8.40
2018-01-29T09:48:04.972Z,7.85
2018-01-29T09:50:32.436Z,7.57
2018-01-29T09:53:00.005Z,8.30
2018-01-29T09:55:27.484Z,6.97
2018-01-29T09:57:55.061Z,7.20
2018-01-29T10:00:22.544Z,7.60
2018-01-29T10:02:50.772Z,8.00
2018-01-29T10:05:18.240Z,7.75
2018-01-29T10:07:45.717Z,6.90
2018-01-29T10:10:13.416Z,7.70
2018-01-29T10:12:40.880Z,8.27
2018-01-29T10:15:08.341Z,8.10
2018-01-29T10:17:36.036Z,7.97
2018-01-29T10:20:03.505Z,7.20
2018-01-29T10:22:31.076Z,7.93
2018-01-29T10:24:58.590Z,7.37
2018-01-29T10:27:26.052Z,8.07
2018-01-29T10:29:54.288Z,7.50
2018-01-29T10:32:21.764Z,8.40
2018-01-29T10:34:49.260Z,7.60
2018-01-29T10:37:16.716Z,7.40
2018-01-29T10:39:44.177Z,7.22
2018-01-29T10:42:11.645Z,6.80
2018-01-29T10:44:39.176Z,7.30
2018-01-29T10:47:07.416Z,7.40
2018-01-29T10:49:34.890Z,6.90
2018-01-29T10:52:02.348Z,7.35
2018-01-29T10:54:29.951Z,6.70
2018-01-29T10:56:57.396Z,6.60
2018-01-29T10:59:24.960Z,6.83
2018-01-29T11:01:58.250Z,6.80
2018-01-29T11:04:25.732Z,6.55
2018-01-29T11:06:53.201Z,7.15
2018-01-29T11:09:20.660Z,6.90
2018-01-29T11:11:48.189Z,7.00
2018-01-29T11:14:15.780Z,7.18
2018-01-29T11:16:43.268Z,7.40
2018-01-29T11:19:10.741Z,7.15
2018-01-29T11:21:38.224Z,6.90
2018-01-29T11:24:05.692Z,8.27
2018-01-29T11:26:33.271Z,7.97
2018-01-29T11:29:00.752Z,7.97
2018-01-29T11:31:28.212Z,7.45
2018-01-29T11:33:55.674Z,7.82
2018-01-29T11:36:23.152Z,7.60
2018-01-29T11:38:50.616Z,7.12
2018-01-29T11:41:18.076Z,7.20
2018-01-29T11:43:45.559Z,7.30
2018-01-29T11:46:13.029Z,7.12
2018-01-29T11:48:40.501Z,6.18
2018-01-29T11:51:07.988Z,6.65
2018-01-29T11:53:36.240Z,7.13
2018-01-29T11:56:03.700Z,6.60
2018-01-29T11:58:31.180Z,6.20
2018-01-29T12:00:58.639Z,6.40
2018-01-29T12:03:26.144Z,6.78
2018-01-29T12:05:53.592Z,7.03
2018-01-29T12:08:21.168Z,7.40
2018-01-29T12:10:48.644Z,7.82
2018-01-29T12:13:16.104Z,8.30
2018-01-29T12:15:43.580Z,7.50
2018-01-29T12:18:11.140Z,8.20
2018-01-29T12:20:38.600Z,8.40
2018-01-29T12:23:06.080Z,7.97
2018-01-29T12:25:33.552Z,8.48
2018-01-29T12:28:01.120Z,8.90
2018-01-29T12:30:28.602Z,8.20
2018-01-29T12:32:56.160Z,9.07
2018-01-29T12:35:23.737Z,8.88
2018-01-29T12:37:51.264Z,8.70
2018-01-29T12:40:18.728Z,8.48
2018-01-29T12:42:46.248Z,8.52
2018-01-29T12:45:13.712Z,7.70
2018-01-29T12:47:41.185Z,7.90
2018-01-29T12:50:08.665Z,8.32
2018-01-29T12:52:36.129Z,7.00
2018-01-29T12:55:03.596Z,7.63
2018-01-29T12:57:31.856Z,8.10
2018-01-29T12:59:59.316Z,8.07
2018-01-29T13:02:26.791Z,8.63
2018-01-29T13:04:54.272Z,8.82
2018-01-29T13:07:21.731Z,8.60
2018-01-29T13:09:49.201Z,9.43
2018-01-29T13:12:16.679Z,9.52
2018-01-29T13:14:44.172Z,9.43
2018-01-29T13:17:11.652Z,9.57
2018-01-29T13:19:39.125Z,9.40
2018-01-29T13:22:07.405Z,8.75
2018-01-29T13:24:34.908Z,9.45
2018-01-29T13:27:03.136Z,9.00
2018-01-29T13:29:30.601Z,8.90
2018-01-29T13:31:58.070Z,9.00
2018-01-29T13:34:25.552Z,8.40
2018-01-29T13:36:53.024Z,8.10
2018-01-29T13:39:21.315Z,8.35
2018-01-29T13:41:48.760Z,7.13
2018-01-29T13:44:16.221Z,7.73
2018-01-29T13:46:43.723Z,6.90
2018-01-29T13:49:11.200Z,7.00
2018-01-29T13:51:38.680Z,7.57
2018-01-29T13:54:06.145Z,7.28
2018-01-29T13:56:33.699Z,7.40
2018-01-29T13:59:01.294Z,7.85
2018-01-29T14:01:29.535Z,8.10
2018-01-29T14:03:57.015Z,9.00
2018-01-29T14:06:24.500Z,8.00
2018-01-29T14:08:51.972Z,8.10
2018-01-29T14:11:19.453Z,8.25
2018-01-29T14:13:46.928Z,7.30
2018-01-29T14:16:14.391Z,6.80
2018-01-29T14:18:41.862Z,7.00
2018-01-29T14:21:09.321Z,7.22
2018-01-29T14:23:36.795Z,7.00
2018-01-29T14:26:04.352Z,6.65
2018-01-29T14:28:31.830Z,6.80
2018-01-29T14:30:59.308Z,8.10
2018-01-29T14:33:26.868Z,6.82
2018-01-29T14:35:54.329Z,7.72
2018-01-29T14:38:21.807Z,8.52
2018-01-29T14:40:49.376Z,8.10
2018-01-29T14:43:16.872Z,9.68
2018-01-29T14:45:45.186Z,7.87
2018-01-29T14:48:13.429Z,8.27
2018-01-29T14:50:40.996Z,7.65
2018-01-29T14:53:08.464Z,7.60
2018-01-29T14:55:35.920Z,7.55
2018-01-29T14:58:03.385Z,8.23
2018-01-29T15:00:30.850Z,8.70
2018-01-29T15:02:58.336Z,7.90
2018-01-29T15:05:25.863Z,7.80
2018-01-29T15:07:54.092Z,8.10
2018-01-29T15:10:21.574Z,6.72
2018-01-29T15:12:49.045Z,7.65
2018-01-29T15:15:16.624Z,6.80
2018-01-29T15:17:44.292Z,7.18
2018-01-29T15:20:11.764Z,6.35
2018-01-29T15:22:39.331Z,6.70
2018-01-29T15:25:06.897Z,6.40
2018-01-29T15:27:34.372Z,6.60
2018-01-29T15:30:01.836Z,5.95
2018-01-29T15:32:29.312Z,6.55
2018-01-29T15:34:56.887Z,6.25
2018-01-29T15:37:24.388Z,5.70
2018-01-29T15:39:52.623Z,6.22
2018-01-29T15:42:20.080Z,6.40
2018-01-29T15:44:47.580Z,5.70
2018-01-29T15:47:15.066Z,6.00
2018-01-29T15:49:42.621Z,6.90
2018-01-29T15:52:10.080Z,7.50
2018-01-29T15:54:37.545Z,8.05
2018-01-29T15:57:05.032Z,8.60
2018-01-29T15:59:32.596Z,6.75
2018-01-29T16:02:00.056Z,8.63
2018-01-29T16:04:27.539Z,8.85
2018-01-29T16:06:55.004Z,8.55
2018-01-29T16:09:22.472Z,8.70
2018-01-29T16:11:49.952Z,8.90
2018-01-29T16:14:17.520Z,8.10
2018-01-29T16:16:45.010Z,9.32
2018-01-29T16:19:14.010Z,9.00
2018-01-29T16:21:41.576Z,9.50
2018-01-29T16:24:09.061Z,9.55
2018-01-29T16:26:36.616Z,9.80
2018-01-29T16:29:04.125Z,8.80
2018-01-29T16:31:32.363Z,10.50
2018-01-29T16:33:59.836Z,8.40
2018-01-29T16:36:27.306Z,9.50
2018-01-29T16:38:54.764Z,8.53
2018-01-29T16:41:22.294Z,7.90
2018-01-29T16:43:50.508Z,7.47
2018-01-29T16:46:17.997Z,7.80
2018-01-29T16:48:45.500Z,7.57
2018-01-29T16:51:13.753Z,8.50
2018-01-29T16:53:41.209Z,7.90
2018-01-29T16:56:08.678Z,8.02
2018-01-29T16:58:36.128Z,7.80
2018-01-29T17:01:03.588Z,8.30
2018-01-29T17:03:31.104Z,7.90
2018-01-29T17:05:58.565Z,8.40
2018-01-29T17:08:26.056Z,8.02
2018-01-29T17:10:53.616Z,8.30
2018-01-29T17:13:21.071Z,7.93
2018-01-29T17:15:48.552Z,9.30
2018-01-29T17:18:16.073Z,9.32
2018-01-29T17:20:44.300Z,10.10
2018-01-29T17:23:11.797Z,9.05
2018-01-29T17:25:39.373Z,9.98
2018-01-29T17:28:06.844Z,10.10
2018-01-29T17:30:34.329Z,10.40
2018-01-29T17:33:02.576Z,9.40
2018-01-29T17:35:30.042Z,10.03
2018-01-29T17:37:57.496Z,10.70
2018-01-29T17:40:24.964Z,11.20
2018-01-29T17:42:52.468Z,11.10
2018-01-29T17:45:19.932Z,10.93
2018-01-29T17:47:47.392Z,12.52
2018-01-29T17:50:14.856Z,12.32
2018-01-29T17:52:42.336Z,12.95
2018-01-29T17:55:09.825Z,13.40
2018-01-29T17:57:38.101Z,13.40
2018-01-29T18:00:05.576Z,11.77
2018-01-29T18:02:33.825Z,10.82
2018-01-29T18:05:01.343Z,13.80
2018-01-29T18:07:28.796Z,13.13
2018-01-29T18:09:56.265Z,12.63
2018-01-29T18:12:23.832Z,11.57
2018-01-29T18:14:52.112Z,11.80
2018-01-29T18:17:19.584Z,10.80
2018-01-29T18:19:47.068Z,10.48
2018-01-29T18:22:14.540Z,9.80
2018-01-29T18:24:42.609Z,9.25
2018-01-29T18:27:10.137Z,8.90
2018-01-29T18:29:37.732Z,9.10
2018-01-29T18:32:05.853Z,7.53
2018-01-29T18:34:33.473Z,4.22
2018-01-29T18:37:01.088Z,4.70
2018-01-29T18:39:28.564Z,5.10
2018-01-29T18:41:56.084Z,4.40
2018-01-29T18:44:24.940Z,4.97
2018-01-29T18:46:53.944Z,4.80
2018-01-29T18:49:21.512Z,4.57
2018-01-29T18:51:48.968Z,3.50
2018-01-29T18:54:16.452Z,3.28
2018-01-29T18:56:43.932Z,2.80
2018-01-29T18:59:11.408Z,2.40
2018-01-29T19:01:38.972Z,2.10
2018-01-29T19:04:06.431Z,2.57
2018-01-29T19:06:33.916Z,1.90
2018-01-29T19:09:01.488Z,1.90
2018-01-29T19:11:28.946Z,1.90
2018-01-29T19:13:56.444Z,1.92
2018-01-29T19:16:24.102Z,2.40
2018-01-29T19:18:51.576Z,2.10
2018-01-29T19:21:19.048Z,2.50
2018-01-29T19:23:46.526Z,2.87
2018-01-29T19:26:14.085Z,2.80
2018-01-29T19:28:41.538Z,2.70
2018-01-29T19:31:09.032Z,3.20
2018-01-29T19:33:37.361Z,2.90
2018-01-29T19:36:04.873Z,3.17
2018-01-29T19:38:32.364Z,3.00
2018-01-29T19:40:59.953Z,2.50
2018-01-29T19:43:27.375Z,1.98
2018-01-29T19:45:54.851Z,2.03
2018-01-29T19:48:22.329Z,1.80
2018-01-29T19:50:49.792Z,1.80
2018-01-29T19:53:17.610Z,1.42
2018-01-29T19:55:45.856Z,1.50
2018-01-29T19:58:13.348Z,1.50
2018-01-29T20:00:40.900Z,1.80
2018-01-29T20:03:08.364Z,1.77
2018-01-29T20:05:35.950Z,1.70
2018-01-29T20:08:03.416Z,1.90
2018-01-29T20:10:30.879Z,2.00
2018-01-29T20:12:58.346Z,1.70
2018-01-29T20:15:25.828Z,1.80
2018-01-29T20:17:53.507Z,1.70
2018-01-29T20:20:20.972Z,2.10
2018-01-29T20:22:48.791Z,2.10
2018-01-29T20:25:16.284Z,2.10
2018-01-29T20:27:43.770Z,1.77
2018-01-29T20:30:11.250Z,2.10
2018-01-29T20:32:38.820Z,2.00
2018-01-29T20:35:06.305Z,2.15
2018-01-29T20:37:34.580Z,2.20
2018-01-29T20:40:02.069Z,2.25
2018-01-29T20:42:29.523Z,2.50
2018-01-29T20:44:57.088Z,2.60
2018-01-29T20:47:24.664Z,2.10
2018-01-29T20:49:52.348Z,2.90
2018-01-29T20:52:19.813Z,2.90
2018-01-29T20:54:47.385Z,2.58
2018-01-29T20:57:14.875Z,2.70
2018-01-29T20:59:43.100Z,2.40
2018-01-29T21:02:10.618Z,2.10
2018-01-29T21:04:38.293Z,2.20
2018-01-29T21:07:05.847Z,2.20
2018-01-29T21:09:33.308Z,2.60
2018-01-29T21:12:00.772Z,2.20
2018-01-29T21:14:28.240Z,2.40
2018-01-29T21:16:55.712Z,2.47
2018-01-29T21:19:23.204Z,2.30
2018-01-29T21:21:50.672Z,2.20
2018-01-29T21:24:18.156Z,2.33
2018-01-29T21:26:45.709Z,2.30
2018-01-29T21:29:13.176Z,2.20
2018-01-29T21:31:40.664Z,2.60
2018-01-29T21:34:08.119Z,2.65
2018-01-29T21:36:35.580Z,2.50
2018-01-29T21:39:03.046Z,2.33
2018-01-29T21:41:30.530Z,2.77
2018-01-29T21:43:58.095Z,3.00
2018-01-29T21:46:25.572Z,2.28
2018-01-29T21:48:53.188Z,2.90
2018-01-29T21:51:20.727Z,2.20
2018-01-29T21:53:48.284Z,2.45
2018-01-29T21:56:16.009Z,2.45
2018-01-29T21:58:43.455Z,2.53
2018-01-29T22:01:11.701Z,2.50
2018-01-29T22:03:39.164Z,2.30
2018-01-29T22:06:06.661Z,2.37
2018-01-29T22:08:34.124Z,2.50
2018-01-29T22:11:01.592Z,2.28
2018-01-29T22:13:29.060Z,2.33
2018-01-29T22:15:56.540Z,2.85
2018-01-29T22:18:24.016Z,2.55
2018-01-29T22:20:51.586Z,2.42
2018-01-29T22:23:19.043Z,2.45
2018-01-29T22:25:46.522Z,2.50
2018-01-29T22:28:14.085Z,2.10
2018-01-29T22:30:41.755Z,2.40
2018-01-29T22:33:09.216Z,2.55
2018-01-29T22:35:36.676Z,2.67
2018-01-29T22:38:04.187Z,3.12
2018-01-29T22:40:32.464Z,2.60
2018-01-29T22:42:59.940Z,2.60
2018-01-29T22:45:27.512Z,2.60
2018-01-29T22:47:55.080Z,3.05
2018-01-29T22:50:22.563Z,2.85
2018-01-29T22:52:50.119Z,2.70
2018-01-29T22:55:18.352Z,3.00
2018-01-29T22:57:45.889Z,2.80
2018-01-29T23:00:17.196Z,2.40
2018-01-29T23:02:44.913Z,3.05
2018-01-29T23:05:12.375Z,3.08
2018-01-29T23:07:39.844Z,2.50
2018-01-29T23:10:07.311Z,2.58
2018-01-29T23:12:34.780Z,2.70
2018-01-29T23:15:02.459Z,4.30
2018-01-29T23:17:29.920Z,3.40
2018-01-29T23:19:57.399Z,3.20
2018-01-29T23:22:24.968Z,3.27
2018-01-29T23:24:52.430Z,3.60
2018-01-29T23:27:19.904Z,3.50
2018-01-29T23:29:47.392Z,2.80
2018-01-29T23:32:14.860Z,3.50
2018-01-29T23:34:42.424Z,3.90
2018-01-29T23:37:09.900Z,3.10
2018-01-29T23:39:37.363Z,3.10
2018-01-29T23:42:04.829Z,3.15
2018-01-29T23:44:32.314Z,3.90
2018-01-29T23:46:59.768Z,3.90
2018-01-29T23:49:27.232Z,3.00
2018-01-29T23:51:54.912Z,3.97
2018-01-29T23:54:22.380Z,3.70
2018-01-29T23:56:49.841Z,3.77
2018-01-29T23:59:17.369Z,4.07
